IBE07KB EGLL-LEMD
Flight info
| Callsign | IBE07KB |
|---|---|
| Flight time | 1h 49m |
| Altitude | 32000 |
| Route | GASGU N866 SAM M195 MARUK N621 LELNA DCT NOVAN DCT DELOG N864 NONTU |
| Aircraft | A20N/M-SDE2E3FGHIRWXY/LB1 |
Departure
| Time | 2026-05-06 08:30 |
|---|---|
| Airport | London Heathrow Airport (EGLL) |
Arrival
| Time | 2026-05-06 10:20 |
|---|---|
| Airport | Adolfo Suárez Madrid–Barajas Airport (LEMD) |
| Time | Latitude | Longitude | Altitude | Speed | Heading |
|---|---|---|---|---|---|
| 2026-05-06 08:06 | 51.46926 | -0.48717 | 85 ft | 0 kts | 360° |
| 2026-05-06 08:23 | 51.46907 | -0.48718 | 86 ft | 4 kts | 12° |
| 2026-05-06 08:24 | 51.46884 | -0.48734 | 87 ft | 4 kts | 53° |
| 2026-05-06 08:24 | 51.46878 | -0.48756 | 87 ft | 1 kts | 89° |
| 2026-05-06 08:27 | 51.46878 | -0.48730 | 86 ft | 4 kts | 89° |
| 2026-05-06 08:27 | 51.46878 | -0.48664 | 84 ft | 8 kts | 90° |
| 2026-05-06 08:27 | 51.46878 | -0.48565 | 84 ft | 11 kts | 89° |
| 2026-05-06 08:28 | 51.46858 | -0.48478 | 86 ft | 9 kts | 146° |
| 2026-05-06 08:28 | 51.46789 | -0.48471 | 87 ft | 12 kts | 179° |
| 2026-05-06 08:28 | 51.46698 | -0.48470 | 85 ft | 14 kts | 179° |
| 2026-05-06 08:28 | 51.46632 | -0.48469 | 88 ft | 9 kts | 180° |
| 2026-05-06 08:29 | 51.46560 | -0.48469 | 89 ft | 12 kts | 180° |
| 2026-05-06 08:29 | 51.46484 | -0.48439 | 88 ft | 13 kts | 126° |
| 2026-05-06 08:29 | 51.46479 | -0.48357 | 87 ft | 2 kts | 89° |
| 2026-05-06 08:29 | 51.46480 | -0.48233 | 87 ft | 31 kts | 89° |
| 2026-05-06 08:30 | 51.46481 | -0.47513 | 80 ft | 97 kts | 89° |
| 2026-05-06 08:30 | 51.46490 | -0.46159 | 84 ft | 145 kts | 90° |
| 2026-05-06 08:30 | 51.46481 | -0.44355 | 228 ft | 169 kts | 87° |
| 2026-05-06 08:30 | 51.46490 | -0.42493 | 854 ft | 169 kts | 87° |
| 2026-05-06 08:31 | 51.46313 | -0.40549 | 1274 ft | 188 kts | 107° |
| 2026-05-06 08:31 | 51.45609 | -0.38709 | 1697 ft | 204 kts | 126° |
| 2026-05-06 08:31 | 51.44651 | -0.36927 | 2019 ft | 221 kts | 127° |
| 2026-05-06 08:31 | 51.43633 | -0.34897 | 2335 ft | 245 kts | 127° |
| 2026-05-06 08:32 | 51.42200 | -0.33244 | 2952 ft | 266 kts | 157° |
| 2026-05-06 08:32 | 51.40354 | -0.32841 | 3764 ft | 278 kts | 187° |
| 2026-05-06 08:32 | 51.38503 | -0.33780 | 4779 ft | 281 kts | 210° |
| 2026-05-06 08:32 | 51.36881 | -0.35478 | 5865 ft | 277 kts | 221° |
| 2026-05-06 08:33 | 51.35416 | -0.37458 | 6949 ft | 276 kts | 225° |
| 2026-05-06 08:33 | 51.33990 | -0.39559 | 7847 ft | 281 kts | 226° |
| 2026-05-06 08:33 | 51.32567 | -0.41687 | 8812 ft | 286 kts | 226° |
| 2026-05-06 08:33 | 51.31259 | -0.44123 | 9567 ft | 292 kts | 239° |
| 2026-05-06 08:34 | 51.30276 | -0.46943 | 9870 ft | 291 kts | 249° |
| 2026-05-06 08:34 | 51.28958 | -0.53040 | 9992 ft | 289 kts | 257° |
| 2026-05-06 08:34 | 51.28396 | -0.56246 | 9996 ft | 316 kts | 257° |
| 2026-05-06 08:35 | 51.27785 | -0.59704 | 9994 ft | 334 kts | 255° |
| 2026-05-06 08:35 | 51.27116 | -0.63221 | 9993 ft | 331 kts | 255° |
| 2026-05-06 08:35 | 51.26440 | -0.66653 | 9991 ft | 315 kts | 255° |
| 2026-05-06 08:35 | 51.25797 | -0.69908 | 9907 ft | 303 kts | 255° |
| 2026-05-06 08:36 | 51.25182 | -0.73025 | 10117 ft | 295 kts | 255° |
| 2026-05-06 08:36 | 51.24539 | -0.76205 | 10212 ft | 310 kts | 249° |
| 2026-05-06 08:36 | 51.23349 | -0.79256 | 10501 ft | 336 kts | 234° |
| 2026-05-06 08:36 | 51.22388 | -0.81224 | 10924 ft | 342 kts | 234° |
| 2026-05-06 08:37 | 51.20406 | -0.85139 | 12154 ft | 344 kts | 233° |
| 2026-05-06 08:37 | 51.18894 | -0.88116 | 13042 ft | 346 kts | 232° |
| 2026-05-06 08:37 | 51.17372 | -0.91126 | 13922 ft | 349 kts | 233° |
| 2026-05-06 08:37 | 51.16363 | -0.93130 | 14465 ft | 350 kts | 233° |
| 2026-05-06 08:38 | 51.14834 | -0.96182 | 15178 ft | 355 kts | 233° |
| 2026-05-06 08:38 | 51.12778 | -1.00291 | 16163 ft | 359 kts | 233° |
| 2026-05-06 08:38 | 51.11722 | -1.02396 | 16705 ft | 360 kts | 233° |
| 2026-05-06 08:38 | 51.10153 | -1.05523 | 17477 ft | 362 kts | 233° |
| 2026-05-06 08:39 | 51.08568 | -1.08683 | 18152 ft | 368 kts | 233° |
| 2026-05-06 08:39 | 51.06960 | -1.11883 | 18769 ft | 372 kts | 233° |
| 2026-05-06 08:39 | 51.05360 | -1.15058 | 19449 ft | 373 kts | 233° |
| 2026-05-06 08:39 | 51.03732 | -1.18288 | 20045 ft | 377 kts | 233° |
| 2026-05-06 08:40 | 51.02081 | -1.21561 | 20630 ft | 381 kts | 232° |
| 2026-05-06 08:40 | 51.00415 | -1.24857 | 21281 ft | 383 kts | 232° |
| 2026-05-06 08:40 | 50.98739 | -1.28168 | 21956 ft | 385 kts | 233° |
| 2026-05-06 08:40 | 50.97031 | -1.31489 | 22448 ft | 392 kts | 230° |
| 2026-05-06 08:41 | 50.95099 | -1.34566 | 23051 ft | 395 kts | 223° |
| 2026-05-06 08:41 | 50.92924 | -1.37260 | 23667 ft | 399 kts | 216° |
| 2026-05-06 08:41 | 50.90582 | -1.39687 | 24139 ft | 403 kts | 214° |
| 2026-05-06 08:41 | 50.88219 | -1.42131 | 24573 ft | 406 kts | 215° |
| 2026-05-06 08:42 | 50.85846 | -1.44590 | 25098 ft | 409 kts | 215° |
| 2026-05-06 08:42 | 50.83581 | -1.46941 | 25486 ft | 412 kts | 214° |
| 2026-05-06 08:42 | 50.81171 | -1.49443 | 25935 ft | 416 kts | 215° |
| 2026-05-06 08:42 | 50.78743 | -1.51958 | 26437 ft | 417 kts | 215° |
| 2026-05-06 08:43 | 50.76336 | -1.54449 | 26855 ft | 421 kts | 215° |
| 2026-05-06 08:43 | 50.73884 | -1.56986 | 27259 ft | 424 kts | 215° |
| 2026-05-06 08:43 | 50.71406 | -1.59543 | 27696 ft | 426 kts | 215° |
| 2026-05-06 08:43 | 50.68955 | -1.62070 | 28080 ft | 429 kts | 214° |
| 2026-05-06 08:44 | 50.66438 | -1.64663 | 28443 ft | 432 kts | 215° |
| 2026-05-06 08:44 | 50.63922 | -1.67250 | 28863 ft | 434 kts | 214° |
| 2026-05-06 08:44 | 50.61421 | -1.69819 | 29077 ft | 440 kts | 214° |
| 2026-05-06 08:44 | 50.59010 | -1.72293 | 29398 ft | 442 kts | 214° |
| 2026-05-06 08:45 | 50.56656 | -1.74704 | 29739 ft | 444 kts | 215° |
| 2026-05-06 08:45 | 50.54086 | -1.77333 | 30073 ft | 447 kts | 214° |
| 2026-05-06 08:45 | 50.51470 | -1.80006 | 30374 ft | 449 kts | 214° |
| 2026-05-06 08:45 | 50.48882 | -1.82647 | 30659 ft | 452 kts | 214° |
| 2026-05-06 08:46 | 50.46257 | -1.85322 | 30955 ft | 454 kts | 214° |
| 2026-05-06 08:46 | 50.43615 | -1.88010 | 31455 ft | 451 kts | 214° |
| 2026-05-06 08:46 | 50.40977 | -1.90689 | 31851 ft | 451 kts | 214° |
| 2026-05-06 08:46 | 50.38336 | -1.93371 | 32113 ft | 454 kts | 214° |
| 2026-05-06 08:47 | 50.35685 | -1.96058 | 32436 ft | 455 kts | 214° |
| 2026-05-06 08:47 | 50.33053 | -1.98721 | 32792 ft | 455 kts | 214° |
| 2026-05-06 08:47 | 50.30401 | -2.01402 | 32965 ft | 453 kts | 214° |
| 2026-05-06 08:48 | 50.24864 | -2.06056 | 32992 ft | 455 kts | 201° |
| 2026-05-06 08:48 | 50.18658 | -2.08051 | 32992 ft | 459 kts | 185° |
| 2026-05-06 08:49 | 50.12268 | -2.08842 | 32989 ft | 461 kts | 185° |
| 2026-05-06 08:49 | 50.05929 | -2.09654 | 32989 ft | 462 kts | 185° |
| 2026-05-06 08:50 | 49.99538 | -2.10552 | 32984 ft | 458 kts | 189° |
| 2026-05-06 08:50 | 49.93342 | -2.12894 | 32984 ft | 460 kts | 198° |
| 2026-05-06 08:51 | 49.87258 | -2.15772 | 32972 ft | 458 kts | 198° |
| 2026-05-06 08:51 | 49.81140 | -2.18635 | 32970 ft | 458 kts | 197° |
| 2026-05-06 08:52 | 49.75265 | -2.21371 | 32962 ft | 460 kts | 197° |
| 2026-05-06 08:52 | 49.69138 | -2.24213 | 32967 ft | 456 kts | 197° |
| 2026-05-06 08:53 | 49.63066 | -2.27023 | 32944 ft | 456 kts | 197° |
| 2026-05-06 08:53 | 49.57015 | -2.29815 | 32953 ft | 457 kts | 197° |
| 2026-05-06 08:54 | 49.50920 | -2.32620 | 32958 ft | 457 kts | 197° |
| 2026-05-06 08:54 | 49.44911 | -2.35379 | 32952 ft | 458 kts | 197° |
| 2026-05-06 08:55 | 49.38805 | -2.38175 | 32963 ft | 459 kts | 197° |
| 2026-05-06 08:55 | 49.32684 | -2.40970 | 32969 ft | 460 kts | 197° |
| 2026-05-06 08:56 | 49.26537 | -2.43770 | 32981 ft | 460 kts | 197° |
| 2026-05-06 08:56 | 49.20390 | -2.46562 | 32984 ft | 460 kts | 197° |
| 2026-05-06 08:57 | 49.14246 | -2.49346 | 32983 ft | 460 kts | 197° |
| 2026-05-06 08:57 | 49.08155 | -2.52099 | 32982 ft | 460 kts | 197° |
| 2026-05-06 08:58 | 49.02019 | -2.54865 | 32970 ft | 456 kts | 197° |
| 2026-05-06 08:58 | 48.95933 | -2.57601 | 32976 ft | 456 kts | 197° |
| 2026-05-06 08:59 | 48.89870 | -2.60320 | 32971 ft | 456 kts | 197° |
| 2026-05-06 08:59 | 48.83772 | -2.63049 | 32969 ft | 458 kts | 197° |
| 2026-05-06 09:00 | 48.77614 | -2.65798 | 32973 ft | 461 kts | 197° |
| 2026-05-06 09:00 | 48.71453 | -2.68539 | 32976 ft | 461 kts | 197° |
| 2026-05-06 09:01 | 48.65347 | -2.71250 | 32970 ft | 461 kts | 197° |
| 2026-05-06 09:01 | 48.59186 | -2.73978 | 32968 ft | 459 kts | 197° |
| 2026-05-06 09:02 | 48.53077 | -2.76676 | 32966 ft | 459 kts | 197° |
| 2026-05-06 09:02 | 48.46946 | -2.79378 | 32961 ft | 459 kts | 197° |
| 2026-05-06 09:03 | 48.40835 | -2.82063 | 32962 ft | 458 kts | 197° |
| 2026-05-06 09:03 | 48.34734 | -2.84738 | 32965 ft | 458 kts | 197° |
| 2026-05-06 09:04 | 48.28603 | -2.87419 | 32965 ft | 458 kts | 197° |
| 2026-05-06 09:04 | 48.22490 | -2.90086 | 32965 ft | 458 kts | 197° |
| 2026-05-06 09:05 | 48.16373 | -2.92748 | 32965 ft | 457 kts | 197° |
| 2026-05-06 09:05 | 48.10250 | -2.95405 | 32963 ft | 457 kts | 197° |
| 2026-05-06 09:06 | 48.04175 | -2.98034 | 32948 ft | 457 kts | 197° |
| 2026-05-06 09:06 | 47.98060 | -3.00674 | 32950 ft | 458 kts | 197° |
| 2026-05-06 09:07 | 47.91967 | -3.03300 | 32952 ft | 458 kts | 197° |
| 2026-05-06 09:07 | 47.85831 | -3.05938 | 32958 ft | 458 kts | 197° |
| 2026-05-06 09:08 | 47.79718 | -3.08558 | 32963 ft | 459 kts | 197° |
| 2026-05-06 09:08 | 47.73601 | -3.11174 | 32962 ft | 460 kts | 197° |
| 2026-05-06 09:09 | 47.67446 | -3.13799 | 32969 ft | 460 kts | 197° |
| 2026-05-06 09:09 | 47.61310 | -3.16411 | 32970 ft | 460 kts | 196° |
| 2026-05-06 09:10 | 47.55143 | -3.19030 | 32972 ft | 460 kts | 196° |
| 2026-05-06 09:10 | 47.48985 | -3.21638 | 32970 ft | 460 kts | 196° |
| 2026-05-06 09:11 | 47.42860 | -3.24225 | 32975 ft | 461 kts | 197° |
| 2026-05-06 09:11 | 47.36720 | -3.26812 | 32980 ft | 461 kts | 196° |
| 2026-05-06 09:12 | 47.30546 | -3.29409 | 32972 ft | 461 kts | 196° |
| 2026-05-06 09:12 | 47.24371 | -3.31997 | 32977 ft | 464 kts | 197° |
| 2026-05-06 09:13 | 47.18208 | -3.34576 | 32975 ft | 462 kts | 196° |
| 2026-05-06 09:13 | 47.12009 | -3.37164 | 32976 ft | 463 kts | 196° |
| 2026-05-06 09:14 | 47.05852 | -3.39727 | 32980 ft | 466 kts | 196° |
| 2026-05-06 09:14 | 46.99641 | -3.42307 | 32980 ft | 463 kts | 196° |
| 2026-05-06 09:15 | 46.93409 | -3.44889 | 32983 ft | 465 kts | 196° |
| 2026-05-06 09:15 | 46.87275 | -3.47425 | 32983 ft | 467 kts | 196° |
| 2026-05-06 09:16 | 46.81056 | -3.49989 | 32983 ft | 464 kts | 196° |
| 2026-05-06 09:16 | 46.74922 | -3.52512 | 32983 ft | 465 kts | 196° |
| 2026-05-06 09:17 | 46.68714 | -3.55060 | 32982 ft | 465 kts | 196° |
| 2026-05-06 09:17 | 46.62536 | -3.57590 | 32986 ft | 464 kts | 196° |
| 2026-05-06 09:18 | 46.56445 | -3.60078 | 32985 ft | 465 kts | 196° |
| 2026-05-06 09:18 | 46.50272 | -3.62593 | 32973 ft | 466 kts | 196° |
| 2026-05-06 09:19 | 46.44049 | -3.65123 | 32988 ft | 464 kts | 196° |
| 2026-05-06 09:19 | 46.37883 | -3.67627 | 32988 ft | 465 kts | 196° |
| 2026-05-06 09:20 | 46.31824 | -3.69876 | 32992 ft | 466 kts | 190° |
| 2026-05-06 09:20 | 46.25372 | -3.70956 | 32990 ft | 465 kts | 186° |
| 2026-05-06 09:21 | 46.18959 | -3.71899 | 32990 ft | 467 kts | 186° |
| 2026-05-06 09:21 | 46.12563 | -3.72851 | 32992 ft | 466 kts | 186° |
| 2026-05-06 09:22 | 46.06154 | -3.73805 | 32993 ft | 467 kts | 186° |
| 2026-05-06 09:22 | 45.99738 | -3.74757 | 32993 ft | 467 kts | 186° |
| 2026-05-06 09:23 | 45.93311 | -3.75708 | 32993 ft | 465 kts | 186° |
| 2026-05-06 09:23 | 45.87939 | -3.76501 | 32994 ft | 468 kts | 186° |
| 2026-05-06 09:24 | 45.81465 | -3.77454 | 32994 ft | 465 kts | 186° |
| 2026-05-06 09:24 | 45.73976 | -3.78555 | 32992 ft | 467 kts | 186° |
| 2026-05-06 09:25 | 45.68677 | -3.79332 | 32994 ft | 466 kts | 186° |
| 2026-05-06 09:25 | 45.62236 | -3.80274 | 32996 ft | 466 kts | 186° |
| 2026-05-06 09:26 | 45.55843 | -3.81207 | 32993 ft | 466 kts | 186° |
| 2026-05-06 09:26 | 45.49396 | -3.82146 | 33001 ft | 466 kts | 186° |
| 2026-05-06 09:27 | 45.43005 | -3.83074 | 33000 ft | 466 kts | 186° |
| 2026-05-06 09:27 | 45.36583 | -3.84005 | 33004 ft | 466 kts | 186° |
| 2026-05-06 09:28 | 45.30155 | -3.84935 | 33009 ft | 466 kts | 186° |
| 2026-05-06 09:28 | 45.23734 | -3.85861 | 33010 ft | 466 kts | 186° |
| 2026-05-06 09:29 | 45.17262 | -3.86793 | 33011 ft | 465 kts | 186° |
| 2026-05-06 09:29 | 45.10870 | -3.87711 | 33010 ft | 465 kts | 186° |
| 2026-05-06 09:30 | 45.04445 | -3.88631 | 33009 ft | 465 kts | 186° |
| 2026-05-06 09:30 | 44.98047 | -3.89546 | 33012 ft | 465 kts | 186° |
| 2026-05-06 09:31 | 44.91814 | -3.90435 | 33009 ft | 464 kts | 186° |
| 2026-05-06 09:31 | 44.85388 | -3.91350 | 33010 ft | 463 kts | 186° |
| 2026-05-06 09:32 | 44.79007 | -3.92256 | 33008 ft | 463 kts | 186° |
| 2026-05-06 09:32 | 44.72607 | -3.93163 | 33003 ft | 462 kts | 186° |
| 2026-05-06 09:33 | 44.66257 | -3.94061 | 33001 ft | 462 kts | 186° |
| 2026-05-06 09:33 | 44.59848 | -3.94966 | 33001 ft | 462 kts | 186° |
| 2026-05-06 09:34 | 44.53488 | -3.95861 | 33003 ft | 462 kts | 186° |
| 2026-05-06 09:34 | 44.47099 | -3.96757 | 33007 ft | 461 kts | 186° |
| 2026-05-06 09:35 | 44.40693 | -3.97655 | 33011 ft | 461 kts | 186° |
| 2026-05-06 09:35 | 44.34340 | -3.98522 | 33008 ft | 461 kts | 184° |
| 2026-05-06 09:36 | 44.27945 | -3.98290 | 33010 ft | 462 kts | 176° |
| 2026-05-06 09:36 | 44.21567 | -3.97641 | 33011 ft | 462 kts | 176° |
| 2026-05-06 09:37 | 44.15137 | -3.97007 | 33006 ft | 462 kts | 176° |
| 2026-05-06 09:37 | 44.08758 | -3.96383 | 33007 ft | 462 kts | 177° |
| 2026-05-06 09:38 | 44.02322 | -3.95758 | 33014 ft | 463 kts | 177° |
| 2026-05-06 09:38 | 43.95919 | -3.95136 | 33007 ft | 463 kts | 177° |
| 2026-05-06 09:39 | 43.89446 | -3.94508 | 33017 ft | 467 kts | 177° |
| 2026-05-06 09:39 | 43.82963 | -3.93882 | 33027 ft | 466 kts | 177° |
| 2026-05-06 09:40 | 43.76499 | -3.93258 | 33042 ft | 468 kts | 177° |
| 2026-05-06 09:40 | 43.66798 | -3.92324 | 33024 ft | 468 kts | 177° |
| 2026-05-06 09:41 | 43.60274 | -3.91698 | 33033 ft | 468 kts | 177° |
| 2026-05-06 09:41 | 43.53807 | -3.91079 | 33050 ft | 466 kts | 178° |
| 2026-05-06 09:42 | 43.47329 | -3.90462 | 33058 ft | 466 kts | 178° |
| 2026-05-06 09:42 | 43.40883 | -3.90810 | 33043 ft | 464 kts | 188° |
| 2026-05-06 09:43 | 43.34509 | -3.91782 | 33042 ft | 465 kts | 188° |
| 2026-05-06 09:43 | 43.28062 | -3.92745 | 33038 ft | 465 kts | 188° |
| 2026-05-06 09:44 | 43.21687 | -3.93688 | 33046 ft | 465 kts | 188° |
| 2026-05-06 09:44 | 43.15248 | -3.94637 | 33025 ft | 464 kts | 188° |
| 2026-05-06 09:45 | 43.08846 | -3.95578 | 33024 ft | 464 kts | 188° |
| 2026-05-06 09:45 | 43.02427 | -3.96521 | 33022 ft | 463 kts | 188° |
| 2026-05-06 09:46 | 42.96011 | -3.97461 | 33019 ft | 463 kts | 188° |
| 2026-05-06 09:46 | 42.89618 | -3.98396 | 33014 ft | 462 kts | 189° |
| 2026-05-06 09:47 | 42.83251 | -3.99325 | 33012 ft | 462 kts | 189° |
| 2026-05-06 09:47 | 42.76856 | -4.00256 | 33009 ft | 461 kts | 189° |
| 2026-05-06 09:48 | 42.70459 | -4.01186 | 33010 ft | 461 kts | 188° |
| 2026-05-06 09:48 | 42.64211 | -4.02092 | 33005 ft | 461 kts | 188° |
| 2026-05-06 09:49 | 42.57813 | -4.03018 | 33002 ft | 461 kts | 188° |
| 2026-05-06 09:49 | 42.51662 | -4.03905 | 33023 ft | 460 kts | 189° |
| 2026-05-06 09:50 | 42.45414 | -4.04805 | 33021 ft | 459 kts | 189° |
| 2026-05-06 09:50 | 42.39217 | -4.05698 | 33017 ft | 459 kts | 189° |
| 2026-05-06 09:51 | 42.32901 | -4.06606 | 33002 ft | 458 kts | 189° |
| 2026-05-06 09:51 | 42.26659 | -4.07497 | 33013 ft | 454 kts | 190° |
| 2026-05-06 09:52 | 42.20366 | -4.08399 | 33016 ft | 455 kts | 189° |
| 2026-05-06 09:52 | 42.14102 | -4.09294 | 33016 ft | 455 kts | 189° |
| 2026-05-06 09:53 | 42.07831 | -4.10183 | 33019 ft | 450 kts | 190° |
| 2026-05-06 09:53 | 42.01584 | -4.11069 | 33017 ft | 452 kts | 190° |
| 2026-05-06 09:54 | 41.95345 | -4.11792 | 33020 ft | 452 kts | 189° |
| 2026-05-06 09:54 | 41.89072 | -4.12478 | 33013 ft | 450 kts | 189° |
| 2026-05-06 09:55 | 41.82818 | -4.13182 | 33016 ft | 450 kts | 189° |
| 2026-05-06 09:55 | 41.76616 | -4.13887 | 33013 ft | 450 kts | 189° |
| 2026-05-06 09:56 | 41.70366 | -4.14596 | 33017 ft | 451 kts | 189° |
| 2026-05-06 09:56 | 41.64148 | -4.15299 | 33013 ft | 447 kts | 189° |
| 2026-05-06 09:57 | 41.57934 | -4.16002 | 33009 ft | 448 kts | 189° |
| 2026-05-06 09:57 | 41.51768 | -4.16698 | 33008 ft | 448 kts | 189° |
| 2026-05-06 09:58 | 41.45560 | -4.17396 | 33009 ft | 446 kts | 189° |
| 2026-05-06 09:58 | 41.39371 | -4.18092 | 33008 ft | 446 kts | 189° |
| 2026-05-06 09:59 | 41.36289 | -4.18437 | 32849 ft | 443 kts | 189° |
| 2026-05-06 09:59 | 41.33217 | -4.18781 | 32311 ft | 442 kts | 189° |
| 2026-05-06 09:59 | 41.30150 | -4.19125 | 31575 ft | 442 kts | 189° |
| 2026-05-06 09:59 | 41.27087 | -4.19472 | 30746 ft | 444 kts | 189° |
| 2026-05-06 10:00 | 41.24044 | -4.19818 | 30076 ft | 442 kts | 189° |
| 2026-05-06 10:00 | 41.20997 | -4.20165 | 29364 ft | 438 kts | 189° |
| 2026-05-06 10:00 | 41.17989 | -4.20506 | 28696 ft | 434 kts | 189° |
| 2026-05-06 10:00 | 41.14975 | -4.20731 | 28008 ft | 434 kts | 182° |
| 2026-05-06 10:01 | 41.11987 | -4.20145 | 27344 ft | 438 kts | 169° |
| 2026-05-06 10:01 | 41.09105 | -4.18762 | 26700 ft | 439 kts | 162° |
| 2026-05-06 10:01 | 41.06278 | -4.17259 | 26089 ft | 435 kts | 162° |
| 2026-05-06 10:01 | 41.03523 | -4.15787 | 25556 ft | 429 kts | 162° |
| 2026-05-06 10:02 | 41.00759 | -4.14318 | 24968 ft | 426 kts | 162° |
| 2026-05-06 10:02 | 40.98012 | -4.12867 | 24297 ft | 420 kts | 162° |
| 2026-05-06 10:02 | 40.95305 | -4.11445 | 23429 ft | 417 kts | 162° |
| 2026-05-06 10:02 | 40.92623 | -4.10042 | 22496 ft | 412 kts | 162° |
| 2026-05-06 10:03 | 40.89975 | -4.08660 | 21612 ft | 406 kts | 162° |
| 2026-05-06 10:03 | 40.87354 | -4.07295 | 20742 ft | 402 kts | 161° |
| 2026-05-06 10:03 | 40.84772 | -4.05950 | 19904 ft | 397 kts | 161° |
| 2026-05-06 10:03 | 40.82247 | -4.04635 | 19077 ft | 393 kts | 161° |
| 2026-05-06 10:04 | 40.79712 | -4.03315 | 18291 ft | 391 kts | 160° |
| 2026-05-06 10:04 | 40.77190 | -4.02003 | 17715 ft | 387 kts | 160° |
| 2026-05-06 10:04 | 40.74691 | -4.00703 | 17184 ft | 382 kts | 160° |
| 2026-05-06 10:04 | 40.72228 | -3.99422 | 16629 ft | 378 kts | 160° |
| 2026-05-06 10:05 | 40.69790 | -3.98155 | 16088 ft | 374 kts | 159° |
| 2026-05-06 10:05 | 40.67381 | -3.96905 | 15559 ft | 371 kts | 159° |
| 2026-05-06 10:05 | 40.64991 | -3.95665 | 15068 ft | 366 kts | 159° |
| 2026-05-06 10:05 | 40.62640 | -3.94446 | 14547 ft | 363 kts | 159° |
| 2026-05-06 10:06 | 40.60319 | -3.93244 | 14026 ft | 361 kts | 158° |
| 2026-05-06 10:06 | 40.57991 | -3.92040 | 13504 ft | 357 kts | 158° |
| 2026-05-06 10:06 | 40.55688 | -3.90847 | 12944 ft | 354 kts | 158° |
| 2026-05-06 10:06 | 40.53407 | -3.89666 | 12450 ft | 350 kts | 158° |
| 2026-05-06 10:07 | 40.51139 | -3.88492 | 11872 ft | 349 kts | 158° |
| 2026-05-06 10:07 | 40.48889 | -3.87329 | 11383 ft | 345 kts | 159° |
| 2026-05-06 10:07 | 40.46673 | -3.86185 | 10952 ft | 340 kts | 159° |
| 2026-05-06 10:07 | 40.44508 | -3.85068 | 10422 ft | 338 kts | 159° |
| 2026-05-06 10:08 | 40.42352 | -3.83956 | 10207 ft | 327 kts | 159° |
| 2026-05-06 10:08 | 40.40254 | -3.82874 | 9797 ft | 322 kts | 159° |
| 2026-05-06 10:08 | 40.38170 | -3.81797 | 9276 ft | 321 kts | 159° |
| 2026-05-06 10:08 | 40.36093 | -3.80725 | 8754 ft | 319 kts | 159° |
| 2026-05-06 10:09 | 40.34030 | -3.79664 | 8277 ft | 316 kts | 159° |
| 2026-05-06 10:09 | 40.31988 | -3.78616 | 7796 ft | 314 kts | 159° |
| 2026-05-06 10:09 | 40.29961 | -3.77575 | 7296 ft | 313 kts | 159° |
| 2026-05-06 10:09 | 40.27976 | -3.76557 | 6845 ft | 310 kts | 159° |
| 2026-05-06 10:10 | 40.25973 | -3.75513 | 6358 ft | 309 kts | 155° |
| 2026-05-06 10:10 | 40.24275 | -3.73841 | 6090 ft | 307 kts | 129° |
| 2026-05-06 10:10 | 40.23245 | -3.71399 | 6009 ft | 308 kts | 110° |
| 2026-05-06 10:10 | 40.22562 | -3.68742 | 5997 ft | 307 kts | 107° |
| 2026-05-06 10:11 | 40.21946 | -3.66063 | 5998 ft | 307 kts | 106° |
| 2026-05-06 10:11 | 40.21327 | -3.63411 | 5997 ft | 307 kts | 107° |
| 2026-05-06 10:11 | 40.20697 | -3.60810 | 5995 ft | 292 kts | 108° |
| 2026-05-06 10:11 | 40.20086 | -3.58362 | 5996 ft | 275 kts | 108° |
| 2026-05-06 10:12 | 40.19691 | -3.56801 | 5995 ft | 273 kts | 108° |
| 2026-05-06 10:12 | 40.18883 | -3.53639 | 5990 ft | 274 kts | 108° |
| 2026-05-06 10:12 | 40.18481 | -3.52075 | 5990 ft | 274 kts | 108° |
| 2026-05-06 10:12 | 40.17876 | -3.49716 | 5990 ft | 274 kts | 108° |
| 2026-05-06 10:13 | 40.17456 | -3.47297 | 5950 ft | 272 kts | 90° |
| 2026-05-06 10:13 | 40.17865 | -3.44938 | 5880 ft | 262 kts | 62° |
| 2026-05-06 10:13 | 40.18991 | -3.43143 | 5701 ft | 254 kts | 41° |
| 2026-05-06 10:13 | 40.20343 | -3.41676 | 5382 ft | 251 kts | 35° |
| 2026-05-06 10:14 | 40.21813 | -3.40543 | 5061 ft | 249 kts | 25° |
| 2026-05-06 10:14 | 40.23364 | -3.39550 | 4768 ft | 247 kts | 26° |
| 2026-05-06 10:14 | 40.24920 | -3.38634 | 4456 ft | 245 kts | 15° |
| 2026-05-06 10:14 | 40.26598 | -3.38452 | 4132 ft | 242 kts | 352° |
| 2026-05-06 10:15 | 40.28225 | -3.38773 | 4037 ft | 233 kts | 352° |
| 2026-05-06 10:15 | 40.29782 | -3.39147 | 3981 ft | 222 kts | 342° |
| 2026-05-06 10:15 | 40.31118 | -3.40022 | 3994 ft | 214 kts | 327° |
| 2026-05-06 10:15 | 40.32344 | -3.41203 | 3995 ft | 220 kts | 322° |
| 2026-05-06 10:16 | 40.33514 | -3.42411 | 3993 ft | 214 kts | 323° |
| 2026-05-06 10:16 | 40.34707 | -3.43616 | 3996 ft | 219 kts | 322° |
| 2026-05-06 10:16 | 40.35923 | -3.44851 | 3996 ft | 220 kts | 322° |
| 2026-05-06 10:16 | 40.37078 | -3.46022 | 3991 ft | 205 kts | 323° |
| 2026-05-06 10:17 | 40.38137 | -3.47096 | 4020 ft | 188 kts | 323° |
| 2026-05-06 10:17 | 40.39116 | -3.48089 | 3808 ft | 178 kts | 323° |
| 2026-05-06 10:17 | 40.40042 | -3.49029 | 3575 ft | 164 kts | 323° |
| 2026-05-06 10:17 | 40.40907 | -3.49907 | 3365 ft | 150 kts | 323° |
| 2026-05-06 10:18 | 40.41690 | -3.50702 | 3167 ft | 136 kts | 323° |
| 2026-05-06 10:18 | 40.42444 | -3.51465 | 2949 ft | 138 kts | 323° |
| 2026-05-06 10:18 | 40.43188 | -3.52224 | 2768 ft | 138 kts | 323° |
| 2026-05-06 10:18 | 40.43933 | -3.52979 | 2562 ft | 134 kts | 324° |
| 2026-05-06 10:19 | 40.44677 | -3.53731 | 2448 ft | 135 kts | 323° |
| 2026-05-06 10:19 | 40.45416 | -3.54484 | 2259 ft | 133 kts | 324° |
| 2026-05-06 10:19 | 40.46151 | -3.55228 | 2073 ft | 132 kts | 324° |
| 2026-05-06 10:19 | 40.46863 | -3.55946 | 1981 ft | 121 kts | 324° |
| 2026-05-06 10:20 | 40.47369 | -3.56463 | 1980 ft | 63 kts | 322° |
| 2026-05-06 10:20 | 40.47577 | -3.56675 | 1981 ft | 30 kts | 323° |
| 2026-05-06 10:20 | 40.47699 | -3.56817 | 1982 ft | 16 kts | 309° |
| 2026-05-06 10:20 | 40.47765 | -3.56949 | 1982 ft | 13 kts | 296° |
| 2026-05-06 10:21 | 40.47786 | -3.57009 | 1980 ft | 8 kts | 295° |
| 2026-05-06 10:21 | 40.47797 | -3.57039 | 1982 ft | 1 kts | 294° |
| 2026-05-06 10:21 | 40.47803 | -3.57065 | 1982 ft | 3 kts | 267° |
| 2026-05-06 10:21 | 40.47803 | -3.57066 | 1982 ft | 0 kts | 265° |
| 2026-05-06 10:22 | 40.47801 | -3.57086 | 1982 ft | 4 kts | 261° |
| 2026-05-06 10:22 | 40.47776 | -3.57119 | 1981 ft | 7 kts | 198° |
| 2026-05-06 10:23 | 40.47724 | -3.57097 | 1981 ft | 9 kts | 144° |
| 2026-05-06 10:23 | 40.47674 | -3.57061 | 1980 ft | 9 kts | 171° |
| 2026-05-06 10:23 | 40.47638 | -3.57102 | 1980 ft | 8 kts | 270° |
| 2026-05-06 10:23 | 40.47677 | -3.57168 | 1982 ft | 11 kts | 320° |
| 2026-05-06 10:24 | 40.47740 | -3.57235 | 1980 ft | 13 kts | 323° |
| 2026-05-06 10:24 | 40.47820 | -3.57314 | 1982 ft | 16 kts | 322° |
| 2026-05-06 10:24 | 40.47914 | -3.57408 | 1980 ft | 18 kts | 322° |
| 2026-05-06 10:24 | 40.48014 | -3.57513 | 1981 ft | 20 kts | 320° |
| 2026-05-06 10:25 | 40.48126 | -3.57626 | 1982 ft | 22 kts | 322° |
| 2026-05-06 10:25 | 40.48248 | -3.57751 | 1980 ft | 23 kts | 323° |
| 2026-05-06 10:25 | 40.48380 | -3.57878 | 1983 ft | 25 kts | 326° |
| 2026-05-06 10:25 | 40.48494 | -3.57976 | 1984 ft | 10 kts | 326° |
| 2026-05-06 10:26 | 40.48514 | -3.58065 | 1980 ft | 12 kts | 268° |
| 2026-05-06 10:26 | 40.48512 | -3.58191 | 1980 ft | 15 kts | 270° |
| 2026-05-06 10:26 | 40.48512 | -3.58338 | 1980 ft | 18 kts | 270° |
| 2026-05-06 10:26 | 40.48512 | -3.58510 | 1980 ft | 19 kts | 270° |
| 2026-05-06 10:27 | 40.48512 | -3.58645 | 1980 ft | 15 kts | 270° |
| 2026-05-06 10:27 | 40.48511 | -3.58741 | 1982 ft | 2 kts | 270° |
| 2026-05-06 10:27 | 40.48511 | -3.58757 | 1980 ft | 5 kts | 272° |
| 2026-05-06 10:27 | 40.48547 | -3.58818 | 1981 ft | 12 kts | 343° |
| 2026-05-06 10:28 | 40.48616 | -3.58822 | 1982 ft | 11 kts | 0° |
| 2026-05-06 10:28 | 40.48666 | -3.58836 | 1984 ft | 7 kts | 314° |
| 2026-05-06 10:28 | 40.48667 | -3.58887 | 1980 ft | 3 kts | 269° |
| 2026-05-06 10:28 | 40.48667 | -3.58908 | 1980 ft | 1 kts | 271° |
| 2026-05-06 10:29 | 40.48668 | -3.58922 | 1980 ft | 2 kts | 272° |
| 2026-05-06 10:29 | 40.48668 | -3.58938 | 1980 ft | 2 kts | 270° |
| 2026-05-06 10:29 | 40.48668 | -3.58951 | 1980 ft | 2 kts | 269° |
| 2026-05-06 10:29 | 40.48668 | -3.58958 | 1980 ft | 0 kts | 269° |